Time;durP1;ratioP1;P1;durP2;ratioP2;P2;SDS_P1;SDS_P2;PMS_P1;PMS_P2;Temp;Humidity;BMP_temperature;BMP_pressure;BME280_temperature;BME280_humidity;BME280_pressure;Samples;Min_cycle;Max_cycle;Signal;HPM_P1;HPM_P2
2022/09/12 00:02:37;;;;;;;;;;;;;;;;;;;;;
2022/09/12 00:05:14;;;;;;;7.07;2.90;;;;;;;18.85;100.00;100453.81;5048408;28;20128;-91
2022/09/12 00:07:46;;;;;;;6.30;2.70;;;;;;;18.89;100.00;100444.28;5030905;28;20105;-90
2022/09/12 00:10:17;;;;;;;8.52;2.63;;;;;;;18.82;100.00;100459.63;5016428;28;20132;-92
2022/09/12 00:12:52;;;;;;;7.63;3.20;;;;;;;18.77;100.00;100451.38;5001623;28;20052;-89
2022/09/12 00:15:30;;;;;;;10.05;2.80;;;;;;;18.83;100.00;100455.88;5033010;28;20033;-91
2022/09/12 00:17:55;;;;;;;5.03;2.72;;;;;;;18.83;100.00;100450.50;5016219;28;20068;-92
2022/09/12 00:21:03;;;;;;;8.80;2.90;;;;;;;18.91;100.00;100446.75;5016298;28;20590;-93
2022/09/12 00:23:32;;;;;;;4.88;2.90;;;;;;;18.87;100.00;100445.53;5030035;28;20046;-91
2022/09/12 00:25:58;;;;;;;4.95;2.58;;;;;;;18.86;100.00;100441.19;5001005;28;20061;-92
2022/09/12 00:28:30;;;;;;;5.20;2.78;;;;;;;18.94;100.00;100451.69;5091063;23;20042;-91
2022/09/12 00:31:05;;;;;;;4.88;2.63;;;;;;;18.94;100.00;100447.13;5016029;28;20057;-91
2022/09/12 00:33:42;;;;;;;8.30;3.03;;;;;;;19.20;100.00;100451.47;4988661;28;20082;-91
2022/09/12 00:36:16;;;;;;;6.60;2.03;;;;;;;19.24;100.00;100446.47;4994550;28;20104;-91
2022/09/12 00:38:44;;;;;;;5.43;2.60;;;;;;;19.00;100.00;100450.81;5028596;28;20101;-88
2022/09/12 00:41:18;;;;;;;6.80;3.13;;;;;;;18.99;100.00;100454.56;5020785;28;20097;-91
2022/09/12 00:43:57;;;;;;;5.45;2.83;;;;;;;19.06;100.00;100466.88;5004194;28;20053;-89
2022/09/12 00:46:32;;;;;;;6.60;2.55;;;;;;;19.13;100.00;100457.94;5019586;28;20120;-90
2022/09/12 00:49:03;;;;;;;16.48;2.80;;;;;;;18.97;100.00;100457.44;5002429;28;20038;-91
2022/09/12 00:51:32;;;;;;;6.93;2.90;;;;;;;18.82;100.00;100458.81;5020328;28;20022;-89
2022/09/12 00:54:02;;;;;;;6.63;3.15;;;;;;;18.66;100.00;100457.44;5018289;28;20386;-87
2022/09/12 00:56:32;;;;;;;6.63;2.67;;;;;;;18.68;100.00;100447.31;5019483;28;20097;-90
2022/09/12 00:59:07;;;;;;;7.03;2.70;;;;;;;18.63;100.00;100455.19;5019603;28;20071;-87
2022/09/12 01:01:33;;;;;;;8.18;3.15;;;;;;;18.62;100.00;100448.19;5019642;28;20056;-88
2022/09/12 01:04:00;;;;;;;4.90;2.40;;;;;;;18.55;100.00;100440.19;5026299;28;20032;-89
2022/09/12 01:06:31;;;;;;;4.05;2.90;;;;;;;18.56;100.00;100440.97;5037032;28;20034;-88
2022/09/12 01:08:58;;;;;;;6.43;2.35;;;;;;;18.56;100.00;100443.66;5036420;28;20034;-90
2022/09/12 01:11:25;;;;;;;9.13;3.00;;;;;;;18.60;100.00;100444.88;5036879;28;20090;-89
2022/09/12 01:13:51;;;;;;;5.25;2.78;;;;;;;18.48;100.00;100441.22;5034180;28;20101;-88
2022/09/12 01:16:17;;;;;;;14.00;2.75;;;;;;;18.46;100.00;100441.44;5034543;28;20006;-93
2022/09/12 01:19:17;;;;;;;4.68;2.70;;;;;;;18.45;100.00;100430.91;5033184;28;20052;-85
2022/09/12 01:22:21;;;;;;;10.70;2.83;;;;;;;18.61;100.00;100430.44;5035161;28;20048;-86
2022/09/12 01:24:57;;;;;;;4.57;2.55;;;;;;;18.55;100.00;100434.81;5015613;28;20026;-90
2022/09/12 01:27:38;;;;;;;7.97;3.28;;;;;;;18.40;100.00;100433.41;5017710;28;20065;-88
2022/09/12 01:30:24;;;;;;;4.45;2.80;;;;;;;18.42;100.00;100431.34;5013009;28;20038;-85
2022/09/12 01:33:07;;;;;;;5.75;3.20;;;;;;;18.54;100.00;100427.78;5016665;28;20106;-88
2022/09/12 01:35:48;;;;;;;6.57;3.05;;;;;;;18.61;100.00;100429.59;5033696;28;20042;-89
2022/09/12 01:38:23;;;;;;;9.48;2.85;;;;;;;18.58;100.00;100430.88;5018366;28;20053;-91
2022/09/12 01:41:05;;;;;;;6.18;3.22;;;;;;;18.61;100.00;100435.81;5018334;28;20069;-90
2022/09/12 01:43:48;;;;;;;8.07;2.90;;;;;;;18.40;100.00;100428.03;5013951;28;20065;-87
2022/09/12 01:46:21;;;;;;;5.30;2.90;;;;;;;18.21;100.00;100421.75;5010852;28;20038;-87
2022/09/12 01:49:08;;;;;;;8.65;2.65;;;;;;;18.12;100.00;100425.72;5015441;28;20041;-88
2022/09/12 01:51:41;;;;;;;5.47;2.75;;;;;;;18.04;100.00;100424.09;4999048;28;20030;-90
2022/09/12 01:54:19;;;;;;;4.25;2.80;;;;;;;18.06;100.00;100432.75;5000264;28;20046;-90
2022/09/12 01:56:49;;;;;;;6.72;2.83;;;;;;;18.05;100.00;100425.75;5007178;28;20538;-89
2022/09/12 01:59:23;;;;;;;6.65;2.65;;;;;;;17.94;100.00;100429.09;5015480;28;20034;-91
2022/09/12 02:02:36;;;;;;;10.05;3.13;;;;;;;17.96;100.00;100421.66;5015056;28;20037;-90
2022/09/12 02:05:16;;;;;;;7.07;2.83;;;;;;;17.94;100.00;100418.38;5016673;28;20041;-91
2022/09/12 02:07:42;;;;;;;6.85;3.10;;;;;;;18.03;100.00;100425.13;5018232;28;20042;-88
2022/09/12 02:10:22;;;;;;;7.90;2.88;;;;;;;17.90;100.00;100419.81;5020236;28;20385;-87
2022/09/12 02:13:03;;;;;;;6.22;2.58;;;;;;;18.07;100.00;100415.63;5015192;28;20401;-90
2022/09/12 02:15:37;;;;;;;6.88;2.42;;;;;;;18.16;100.00;100418.91;5014423;28;20596;-89
2022/09/12 02:18:05;;;;;;;7.40;2.53;;;;;;;18.07;100.00;100417.47;5018423;28;20030;-91
2022/09/12 02:20:37;;;;;;;7.22;2.97;;;;;;;18.00;100.00;100417.50;5022912;28;20402;-89
2022/09/12 02:23:08;;;;;;;7.95;2.70;;;;;;;17.83;100.00;100416.34;5016872;28;20076;-87
2022/09/12 02:25:41;;;;;;;7.03;2.95;;;;;;;17.98;100.00;100424.13;5015424;28;20476;-90
2022/09/12 02:28:16;;;;;;;5.15;2.80;;;;;;;17.85;100.00;100422.31;5017467;28;20057;-86
2022/09/12 02:31:04;;;;;;;7.88;2.80;;;;;;;17.85;100.00;100419.66;5017640;28;20038;-90
2022/09/12 02:33:42;;;;;;;5.25;3.00;;;;;;;17.80;100.00;100415.94;5018692;28;20034;-93
2022/09/12 02:36:32;;;;;;;4.20;2.50;;;;;;;17.79;100.00;100417.81;5018179;28;20045;-91
2022/09/12 02:38:59;;;;;;;5.65;2.92;;;;;;;17.83;100.00;100410.19;5018378;28;20042;-88
2022/09/12 02:41:25;;;;;;;7.57;3.22;;;;;;;17.81;100.00;100414.91;5017970;28;20042;-88
2022/09/12 02:43:52;;;;;;;7.07;3.22;;;;;;;17.84;100.00;100411.81;5019117;28;20034;-90
2022/09/12 02:46:24;;;;;;;6.15;2.72;;;;;;;17.83;100.00;100410.97;5016585;28;20436;-90
2022/09/12 02:48:49;;;;;;;9.27;3.22;;;;;;;17.78;100.00;100407.28;5017297;28;20034;-88
2022/09/12 02:51:16;;;;;;;7.97;3.70;;;;;;;17.72;100.00;100410.81;5017695;28;20022;-89
2022/09/12 02:53:42;;;;;;;7.13;3.15;;;;;;;17.70;100.00;100404.88;5000115;28;20125;-90
2022/09/12 02:56:16;;;;;;;10.20;3.30;;;;;;;17.70;100.00;100400.28;5016064;28;20121;-89
2022/09/12 02:58:42;;;;;;;7.25;3.45;;;;;;;17.69;100.00;100404.03;5016550;28;20064;-89
2022/09/12 03:01:08;;;;;;;5.68;3.30;;;;;;;17.71;100.00;100395.75;5016788;28;20053;-89
2022/09/12 03:03:55;;;;;;;8.90;3.65;;;;;;;17.73;100.00;100391.03;5017689;28;20087;-91
2022/09/12 03:06:45;;;;;;;6.18;3.53;;;;;;;17.79;100.00;100388.34;5004881;28;20461;-89
2022/09/12 03:09:48;;;;;;;8.45;3.60;;;;;;;17.89;100.00;100388.69;5032664;28;20052;-87
2022/09/12 03:12:56;;;;;;;6.13;3.17;;;;;;;17.86;100.00;100386.44;5017628;28;20604;-90
2022/09/12 03:15:36;;;;;;;8.95;3.13;;;;;;;17.94;100.00;100383.50;5017386;28;20038;-87
2022/09/12 03:18:23;;;;;;;5.45;2.67;;;;;;;17.93;100.00;100384.53;5018352;28;20041;-88
2022/09/12 03:21:11;;;;;;;5.47;3.28;;;;;;;17.87;100.00;100382.72;5016532;28;20392;-88
2022/09/12 03:24:03;;;;;;;12.48;3.47;;;;;;;17.80;100.00;100383.75;5017355;28;20030;-89
2022/09/12 03:26:41;;;;;;;6.60;3.33;;;;;;;17.89;100.00;100377.97;4999340;28;20045;-89
2022/09/12 03:29:08;;;;;;;6.70;3.28;;;;;;;17.92;100.00;100388.28;5016153;28;20507;-89
2022/09/12 03:31:33;;;;;;;4.00;3.22;;;;;;;17.86;100.00;100386.44;5017877;28;20034;-88
2022/09/12 03:33:59;;;;;;;6.90;3.50;;;;;;;17.96;100.00;100389.47;5016357;28;20049;-88
2022/09/12 03:36:27;;;;;;;5.38;3.00;;;;;;;17.99;100.00;100389.06;5018555;28;20030;-89
2022/09/12 03:38:53;;;;;;;7.93;3.50;;;;;;;17.81;100.00;100388.94;5018900;28;20041;-89
2022/09/12 03:41:19;;;;;;;8.45;3.20;;;;;;;18.03;100.00;100390.25;5016039;28;20038;-91
2022/09/12 03:43:45;;;;;;;9.60;3.35;;;;;;;17.94;100.00;100391.56;5017222;28;20103;-87
2022/09/12 03:46:11;;;;;;;9.18;3.72;;;;;;;17.70;100.00;100394.13;5016515;28;20034;-89
2022/09/12 03:48:37;;;;;;;7.60;3.38;;;;;;;17.45;100.00;100392.09;5016559;28;20477;-87
2022/09/12 03:51:08;;;;;;;7.22;3.30;;;;;;;17.39;100.00;100392.13;5015487;28;20153;-88
2022/09/12 03:53:35;;;;;;;9.52;3.45;;;;;;;17.38;100.00;100390.47;5015777;28;20080;-87
2022/09/12 03:56:06;;;;;;;5.45;3.67;;;;;;;17.47;100.00;100392.72;5015855;28;20029;-86
2022/09/12 03:58:32;;;;;;;6.05;3.65;;;;;;;17.31;100.00;100395.00;5015579;28;20033;-89
2022/09/12 04:00:58;;;;;;;10.38;3.65;;;;;;;17.24;100.00;100397.69;5015443;28;20129;-89
2022/09/12 04:03:26;;;;;;;8.13;3.70;;;;;;;17.28;100.00;100400.78;5015500;28;20042;-89
2022/09/12 04:05:52;;;;;;;6.22;3.03;;;;;;;17.39;100.00;100392.13;5015753;28;20049;-93
2022/09/12 04:08:17;;;;;;;12.07;3.58;;;;;;;17.44;100.00;100394.97;5015410;28;20133;-88
2022/09/12 04:10:43;;;;;;;8.57;3.40;;;;;;;17.28;100.00;100401.63;5019181;28;20053;-88
2022/09/12 04:13:08;;;;;;;11.27;4.10;;;;;;;17.37;100.00;100399.53;5015120;28;20129;-90
2022/09/12 04:15:34;;;;;;;5.53;3.35;;;;;;;17.46;100.00;100399.13;5015717;28;20109;-88
2022/09/12 04:17:59;;;;;;;5.88;3.05;;;;;;;17.53;100.00;100396.44;5015742;28;20080;-90
2022/09/12 04:20:25;;;;;;;8.68;3.67;;;;;;;17.53;100.00;100396.44;5015805;28;20116;-90
2022/09/12 04:22:50;;;;;;;11.73;3.25;;;;;;;17.63;100.00;100394.16;5031667;28;20048;-91
2022/09/12 04:25:16;;;;;;;10.23;3.40;;;;;;;17.60;100.00;100397.22;5021759;28;20021;-88
2022/09/12 04:27:42;;;;;;;9.13;3.20;;;;;;;17.48;100.00;100396.22;5038259;28;20048;-92
2022/09/12 04:30:08;;;;;;;7.90;3.20;;;;;;;17.45;100.00;100399.31;5038343;28;20069;-89
2022/09/12 04:32:33;;;;;;;7.93;3.45;;;;;;;17.35;100.00;100396.25;5023859;28;20025;-87
2022/09/12 04:35:01;;;;;;;9.05;3.40;;;;;;;17.28;100.00;100403.47;5016139;28;20096;-87
2022/09/12 04:37:26;;;;;;;9.65;3.42;;;;;;;17.29;100.00;100402.44;5015778;28;20042;-87
2022/09/12 04:39:56;;;;;;;14.75;3.50;;;;;;;17.21;100.00;100400.78;5015166;28;20049;-87
2022/09/12 04:42:22;;;;;;;8.80;3.47;;;;;;;17.20;100.00;100399.13;5015651;28;20104;-87
2022/09/12 04:44:48;;;;;;;6.90;3.55;;;;;;;17.20;100.00;100406.38;5016033;28;20037;-91
2022/09/12 04:47:13;;;;;;;9.35;3.55;;;;;;;17.16;100.00;100414.00;5015344;28;20468;-89
2022/09/12 04:49:39;;;;;;;11.52;4.03;;;;;;;17.33;100.00;100415.22;5014040;28;20044;-88
2022/09/12 04:52:04;;;;;;;9.05;3.85;;;;;;;17.17;100.00;100412.16;5014794;28;20133;-88
2022/09/12 04:54:30;;;;;;;7.40;3.55;;;;;;;17.10;100.00;100430.06;5014566;28;20037;-89
2022/09/12 04:56:55;;;;;;;11.32;4.25;;;;;;;16.99;100.00;100429.66;5014001;28;20038;-91
2022/09/12 04:59:21;;;;;;;9.52;3.95;;;;;;;16.89;100.00;100423.06;5013895;28;20505;-88
2022/09/12 05:01:47;;;;;;;9.27;4.15;;;;;;;16.91;100.00;100421.81;5015277;28;20033;-89
2022/09/12 05:04:13;;;;;;;9.73;4.75;;;;;;;16.87;100.00;100425.13;5017225;28;20497;-88
2022/09/12 05:06:40;;;;;;;13.20;4.75;;;;;;;16.96;100.00;100434.59;5015877;28;20061;-89
2022/09/12 05:09:07;;;;;;;10.40;4.45;;;;;;;17.06;100.00;100440.38;5016473;28;20092;-88
2022/09/12 05:11:36;;;;;;;9.00;4.28;;;;;;;17.10;100.00;100441.59;5014561;28;20058;-87
2022/09/12 05:14:02;;;;;;;10.50;4.22;;;;;;;17.14;100.00;100452.72;4996669;28;20042;-86
2022/09/12 05:16:30;;;;;;;8.13;4.22;;;;;;;17.22;100.00;100444.47;4992819;28;20112;-85
2022/09/12 05:18:57;;;;;;;8.68;4.30;;;;;;;17.23;100.00;100449.63;5037000;28;20045;-86
2022/09/12 05:21:23;;;;;;;9.05;4.18;;;;;;;17.28;100.00;100457.03;5019503;28;20061;-86
2022/09/12 05:23:56;;;;;;;7.35;4.55;;;;;;;17.39;100.00;100457.25;4992339;28;20511;-85
2022/09/12 05:26:22;;;;;;;8.52;4.13;;;;;;;17.60;100.00;100464.22;5025794;28;20072;-87
2022/09/12 05:28:50;;;;;;;13.15;4.15;;;;;;;17.78;100.00;100467.09;5018835;28;20033;-89
2022/09/12 05:31:16;;;;;;;9.32;4.43;;;;;;;18.00;100.00;100470.31;5020911;28;20485;-86
2022/09/12 05:33:44;;;;;;;8.02;3.90;;;;;;;18.15;100.00;100472.75;4997999;28;20485;-88
2022/09/12 05:36:22;;;;;;;12.40;3.78;;;;;;;18.66;100.00;100473.56;4994256;28;20034;-86
2022/09/12 05:38:48;;;;;;;7.97;3.78;;;;;;;19.28;100.00;100479.94;4993922;28;20109;-85
2022/09/12 05:41:23;;;;;;;10.48;3.47;;;;;;;19.23;100.00;100485.13;4992835;28;20110;-86
2022/09/12 05:44:15;;;;;;;6.47;3.25;;;;;;;19.58;100.00;100486.31;4996379;28;20490;-85
2022/09/12 05:46:44;;;;;;;11.50;4.05;;;;;;;19.32;100.00;100486.53;5004984;28;20044;-87
2022/09/12 05:49:12;;;;;;;5.65;3.75;;;;;;;19.23;100.00;100493.19;5009381;28;20034;-87
2022/09/12 05:51:40;;;;;;;8.48;3.80;;;;;;;19.47;100.00;100495.09;5004175;28;20177;-85
2022/09/12 05:54:08;;;;;;;7.28;3.80;;;;;;;19.55;100.00;100508.28;5004208;28;20117;-85
2022/09/12 05:56:38;;;;;;;8.80;3.53;;;;;;;19.61;100.00;100502.00;5011212;28;20045;-85
2022/09/12 05:59:10;;;;;;;9.85;3.85;;;;;;;19.78;100.00;100508.47;5001358;28;20058;-87
2022/09/12 06:01:40;;;;;;;7.90;4.03;;;;;;;19.75;100.00;100500.84;5004074;28;20555;-87
2022/09/12 06:04:07;;;;;;;8.88;4.07;;;;;;;20.12;99.92;100504.34;5003961;28;20069;-88
2022/09/12 06:06:36;;;;;;;14.02;4.25;;;;;;;20.22;97.66;100507.34;5004873;28;20093;-88
2022/09/12 06:09:04;;;;;;;10.40;4.80;;;;;;;20.55;95.28;100505.06;5002787;28;20426;-88
2022/09/12 06:11:32;;;;;;;9.90;5.70;;;;;;;20.68;96.66;100493.34;5018297;28;20042;-87
2022/09/12 06:13:59;;;;;;;12.73;6.03;;;;;;;20.66;96.35;100503.50;5004649;28;20489;-89
2022/09/12 06:16:29;;;;;;;16.73;6.03;;;;;;;21.29;91.10;100511.06;5015266;28;20045;-88
2022/09/12 06:19:05;;;;;;;13.52;7.00;;;;;;;21.24;90.08;100508.28;5012055;28;20035;-85
2022/09/12 06:21:32;;;;;;;13.82;6.95;;;;;;;21.34;89.72;100503.13;4996763;28;20049;-86
2022/09/12 06:23:58;;;;;;;17.67;6.07;;;;;;;21.43;88.04;100499.84;4998904;28;20036;-86
2022/09/12 06:26:26;;;;;;;13.20;5.03;;;;;;;21.34;86.98;100503.13;4994240;28;20058;-85
2022/09/12 06:28:53;;;;;;;17.95;4.43;;;;;;;21.80;85.11;100508.53;5004695;28;20041;-87
2022/09/12 06:31:21;;;;;;;8.27;3.75;;;;;;;21.64;83.22;100509.25;5004474;28;20212;-86
2022/09/12 06:33:52;;;;;;;8.75;3.17;;;;;;;21.95;81.45;100505.38;5006148;28;20054;-85
2022/09/12 06:36:26;;;;;;;10.15;3.55;;;;;;;22.13;78.12;100507.94;5008717;28;20034;-85
2022/09/12 06:39:06;;;;;;;9.05;3.13;;;;;;;22.01;77.30;100510.63;5006368;28;20037;-86
2022/09/12 06:41:35;;;;;;;8.82;3.25;;;;;;;22.26;76.74;100509.53;5009761;28;20108;-86
2022/09/12 06:44:04;;;;;;;11.27;2.97;;;;;;;22.58;73.87;100516.94;5008447;28;20088;-86
2022/09/12 06:46:32;;;;;;;9.30;2.80;;;;;;;22.60;73.56;100514.03;5010785;28;20030;-87
2022/09/12 06:48:59;;;;;;;9.30;2.75;;;;;;;22.81;72.06;100516.06;5011404;28;20048;-86
2022/09/12 06:51:27;;;;;;;8.02;3.40;;;;;;;23.36;69.72;100513.53;5009918;28;20444;-86
2022/09/12 06:53:56;;;;;;;9.68;2.67;;;;;;;23.80;68.18;100514.47;5017107;28;20103;-85
2022/09/12 06:56:24;;;;;;;4.88;2.95;;;;;;;24.15;65.31;100511.47;5017455;28;20088;-87
2022/09/12 06:58:51;;;;;;;7.78;3.88;;;;;;;23.78;67.12;100516.63;5017205;28;20648;-86
2022/09/12 07:01:21;;;;;;;11.65;4.95;;;;;;;24.00;66.98;100508.53;5017741;28;20034;-87
2022/09/12 07:03:52;;;;;;;9.82;4.28;;;;;;;23.85;67.92;100505.63;5015680;28;20121;-88
2022/09/12 07:06:20;;;;;;;11.27;4.35;;;;;;;24.10;65.71;100504.06;5017076;28;20030;-86
2022/09/12 07:08:46;;;;;;;8.65;3.90;;;;;;;23.85;66.71;100509.16;5022987;28;20064;-84
2022/09/12 07:11:19;;;;;;;8.48;3.05;;;;;;;24.54;62.95;100514.94;5018061;28;20033;-86
2022/09/12 07:13:48;;;;;;;10.88;3.20;;;;;;;24.49;62.29;100517.59;5020438;28;20077;-85
2022/09/12 07:16:14;;;;;;;8.85;2.80;;;;;;;24.95;61.46;100517.03;5022284;28;20041;-83
2022/09/12 07:18:40;;;;;;;12.63;2.75;;;;;;;24.89;61.57;100512.63;5039588;28;20030;-85
2022/09/12 07:21:13;;;;;;;7.38;2.58;;;;;;;24.82;61.38;100517.44;5034872;28;20029;-85
2022/09/12 07:23:40;;;;;;;9.05;2.38;;;;;;;24.62;61.59;100514.50;5017472;28;20030;-86
2022/09/12 07:26:09;;;;;;;11.40;2.15;;;;;;;24.93;60.57;100513.75;5015281;28;20038;-85
2022/09/12 07:28:35;;;;;;;9.10;1.73;;;;;;;24.70;60.11;100514.03;5015906;28;20436;-86
2022/09/12 07:31:16;;;;;;;9.50;2.30;;;;;;;24.70;61.38;100519.44;5014302;28;20057;-85
2022/09/12 07:33:43;;;;;;;5.80;2.10;;;;;;;24.82;59.94;100519.31;5011733;28;20049;-85
2022/09/12 07:36:14;;;;;;;6.47;2.08;;;;;;;24.64;60.62;100520.47;5016077;28;20034;-86
2022/09/12 07:38:40;;;;;;;6.35;1.92;;;;;;;24.89;60.54;100517.25;5016340;28;20038;-86
2022/09/12 07:41:12;;;;;;;6.85;1.90;;;;;;;25.16;60.57;100516.13;5015996;28;20461;-85
2022/09/12 07:43:38;;;;;;;;;;;;;;;25.91;55.93;100520.53;5016051;28;20073;-86
2022/09/12 07:46:06;;;;;;;11.18;2.22;;;;;;;25.68;57.36;100520.94;5010224;28;19949;-86
2022/09/12 07:48:32;;;;;;;10.40;2.55;;;;;;;26.04;55.87;100524.66;5012685;28;20062;-86
2022/09/12 07:51:04;;;;;;;7.63;2.35;;;;;;;25.83;55.47;100523.72;5015581;28;20088;-85
2022/09/12 07:53:32;;;;;;;9.53;2.50;;;;;;;25.69;55.97;100520.66;5013754;28;20115;-84
2022/09/12 07:55:58;;;;;;;12.45;2.90;;;;;;;25.74;56.62;100525.31;5013683;28;20120;-84
2022/09/12 07:58:24;;;;;;;8.85;2.83;;;;;;;26.11;55.26;100531.50;5014889;28;20121;-84
2022/09/12 08:00:49;;;;;;;7.57;2.35;;;;;;;26.27;55.56;100534.31;5011643;28;20065;-83
2022/09/12 08:03:16;;;;;;;16.75;2.47;;;;;;;26.66;53.70;100533.66;5013504;28;20030;-82
2022/09/12 08:05:44;;;;;;;16.20;2.42;;;;;;;26.55;53.70;100536.59;5004741;28;20032;-85
2022/09/12 08:08:10;;;;;;;10.27;2.50;;;;;;;27.07;52.17;100529.16;5002578;28;20026;-80
2022/09/12 08:10:35;;;;;;;12.82;2.22;;;;;;;27.62;49.51;100525.63;5003022;28;20535;-83
2022/09/12 08:13:02;;;;;;;12.70;2.75;;;;;;;27.34;51.22;100528.06;5011399;28;20120;-85
2022/09/12 08:15:30;;;;;;;7.43;2.25;;;;;;;27.49;50.27;100531.63;5012514;28;20518;-85
2022/09/12 08:17:58;;;;;;;7.95;2.70;;;;;;;28.10;48.83;100540.56;5011788;28;20033;-88
2022/09/12 08:20:24;;;;;;;12.77;2.90;;;;;;;28.83;46.39;100545.44;5001331;28;20048;-85
2022/09/12 08:22:50;;;;;;;11.10;2.83;;;;;;;28.15;48.56;100545.97;5013344;28;20468;-85
2022/09/12 08:25:16;;;;;;;6.95;2.55;;;;;;;27.96;48.14;100541.38;5039315;28;20037;-86
2022/09/12 08:27:41;;;;;;;10.48;2.72;;;;;;;28.36;48.13;100540.47;5029856;28;20030;-87
2022/09/12 08:30:08;;;;;;;7.53;2.83;;;;;;;28.16;48.33;100536.72;5015400;28;20042;-88
2022/09/12 08:32:34;;;;;;;11.85;2.85;;;;;;;27.86;48.62;100536.75;5008975;28;20045;-89
2022/09/12 08:35:00;;;;;;;10.23;2.95;;;;;;;27.45;50.98;100541.44;5012353;28;20038;-87
2022/09/12 08:37:30;;;;;;;12.52;3.25;;;;;;;28.23;47.85;100550.88;5022883;28;20026;-89
2022/09/12 08:39:55;;;;;;;10.07;3.13;;;;;;;28.42;47.50;100545.59;4995084;28;20339;-88
2022/09/12 08:42:40;;;;;;;7.57;2.75;;;;;;;28.49;47.23;100539.84;5004953;28;20033;-90
2022/09/12 08:45:35;;;;;;;8.90;3.15;;;;;;;28.27;48.11;100542.13;5003577;28;20068;-88
2022/09/12 08:48:05;;;;;;;6.57;3.03;;;;;;;28.31;48.54;100543.19;4996868;28;20409;-89
2022/09/12 08:50:31;;;;;;;11.63;3.83;;;;;;;28.13;47.95;100536.44;5009985;28;20030;-88
2022/09/12 08:53:15;;;;;;;12.60;3.63;;;;;;;28.53;47.91;100540.94;5013128;28;20392;-86
2022/09/12 08:55:52;;;;;;;9.05;3.55;;;;;;;29.43;44.53;100542.28;5008158;28;20030;-87
2022/09/12 08:58:26;;;;;;;21.02;3.38;;;;;;;29.98;43.38;100540.16;5005559;28;20034;-86
2022/09/12 09:01:28;;;;;;;19.08;3.63;;;;;;;30.05;43.81;100546.91;5003835;28;20440;-88
2022/09/12 09:04:20;;;;;;;14.77;3.08;;;;;;;30.23;42.40;100543.41;5015797;28;20503;-88
2022/09/12 09:07:27;;;;;;;13.63;3.80;;;;;;;29.28;45.03;100545.16;5010937;28;20126;-85
2022/09/12 09:10:18;;;;;;;17.25;3.30;;;;;;;28.90;46.14;100545.94;4998719;28;20038;-90
2022/09/12 09:13:04;;;;;;;12.05;3.40;;;;;;;29.41;44.19;100540.94;5023598;28;20072;-90
2022/09/12 09:15:39;;;;;;;6.70;2.70;;;;;;;30.76;42.38;100551.50;5021507;28;20054;-89
2022/09/12 09:18:21;;;;;;;7.47;3.63;;;;;;;30.10;43.13;100540.56;5015503;28;20108;-88
2022/09/12 09:21:02;;;;;;;14.50;3.15;;;;;;;29.89;44.15;100537.25;5018060;28;20037;-89
2022/09/12 09:23:32;;;;;;;7.25;3.63;;;;;;;29.76;44.18;100533.22;5013556;28;20117;-90
2022/09/12 09:26:05;;;;;;;8.18;2.53;;;;;;;30.38;43.29;100533.41;5013701;28;20040;-92
2022/09/12 09:28:38;;;;;;;9.18;3.67;;;;;;;29.94;44.12;100531.72;5018254;28;20103;-91
2022/09/12 09:31:59;;;;;;;15.05;3.55;;;;;;;30.43;44.13;100525.16;5016450;28;20108;-92
2022/09/12 09:34:56;;;;;;;17.83;4.05;;;;;;;30.10;44.01;100522.25;5014615;28;20048;-91
2022/09/12 09:38:00;;;;;;;11.95;3.28;;;;;;;31.05;42.28;100529.50;5011643;28;20173;-90
2022/09/12 09:40:46;;;;;;;21.45;4.40;;;;;;;30.79;42.26;100525.50;5017646;28;20041;-90
2022/09/12 09:43:22;;;;;;;14.05;4.65;;;;;;;30.07;43.04;100528.28;5019382;28;20523;-88
2022/09/12 09:45:50;;;;;;;11.38;3.35;;;;;;;30.06;43.81;100521.19;5029214;28;20062;-86
2022/09/12 09:48:26;;;;;;;10.80;5.10;;;;;;;29.47;45.00;100523.41;5006514;28;20461;-86
2022/09/12 09:50:52;;;;;;;9.55;3.85;;;;;;;30.44;42.81;100516.66;5010733;28;20049;-91
2022/09/12 09:53:45;;;;;;;8.77;3.22;;;;;;;30.99;41.94;100517.00;5003600;28;20123;-91
2022/09/12 09:56:34;;;;;;;22.33;4.72;;;;;;;30.45;42.53;100517.47;5006519;28;20031;-93
2022/09/12 09:59:28;;;;;;;10.68;5.55;;;;;;;30.82;41.61;100506.56;4989931;28;20233;-92
2022/09/12 10:02:03;;;;;;;16.73;4.60;;;;;;;31.79;41.01;100509.34;5000639;28;20481;-89
2022/09/12 10:04:32;;;;;;;17.55;6.30;;;;;;;31.60;41.55;100514.91;5008787;28;20412;-92
2022/09/12 10:07:00;;;;;;;11.75;5.80;;;;;;;31.78;40.65;100518.69;5011438;28;20090;-93
2022/09/12 10:09:33;;;;;;;11.27;4.80;;;;;;;31.67;40.08;100512.59;5015323;28;20053;-91
2022/09/12 10:12:19;;;;;;;15.40;5.60;;;;;;;31.23;41.68;100512.22;5019281;28;20030;-94
2022/09/12 10:15:01;;;;;;;18.50;8.73;;;;;;;30.69;43.97;100510.03;5022394;28;20034;-91
2022/09/12 10:17:49;;;;;;;12.82;7.43;;;;;;;31.56;42.60;100499.34;5018045;28;20022;-92
2022/09/12 10:20:38;;;;;;;16.40;6.88;;;;;;;31.84;41.13;100512.00;5016586;28;20045;-93
2022/09/12 10:23:46;;;;;;;17.17;7.70;;;;;;;31.80;41.32;100502.75;5005665;28;20042;-93
2022/09/12 10:26:20;;;;;;;13.32;7.20;;;;;;;32.12;40.41;100497.19;4974601;28;20062;-91
2022/09/12 10:29:39;;;;;;;9.57;6.28;;;;;;;32.58;39.60;100493.53;4979848;28;20050;-92
2022/09/12 10:32:07;;;;;;;13.05;7.03;;;;;;;32.10;39.76;100493.97;4963671;28;20042;-91
2022/09/12 10:34:43;;;;;;;13.63;5.28;;;;;;;32.80;38.38;100492.72;4967049;28;20057;-92
2022/09/12 10:37:23;;;;;;;9.13;5.40;;;;;;;33.42;38.39;100485.44;4973484;28;20054;-91
2022/09/12 10:39:52;;;;;;;10.98;5.70;;;;;;;33.64;36.97;100493.69;5037802;28;20048;-92
2022/09/12 10:42:50;;;;;;;11.23;6.25;;;;;;;33.23;38.62;100488.41;5020841;28;20049;-92
2022/09/12 10:45:30;;;;;;;11.35;5.22;;;;;;;32.94;37.61;100486.06;5023452;28;20041;-91
2022/09/12 10:47:59;;;;;;;10.23;5.63;;;;;;;32.83;37.33;100495.66;5001006;28;20086;-90
2022/09/12 10:50:41;;;;;;;11.98;5.60;;;;;;;33.13;36.91;100483.16;5011475;28;20037;-90
2022/09/12 10:53:12;;;;;;;;;;;;;;;32.66;37.19;100487.28;5017820;28;20374;-91
2022/09/12 10:55:44;;;;;;;10.43;5.37;;;;;;;32.50;38.56;100483.22;5018126;28;19940;-86
2022/09/12 10:58:26;;;;;;;12.50;6.80;;;;;;;32.19;38.99;100475.66;5006168;28;20039;-91
2022/09/12 11:01:02;;;;;;;13.20;6.95;;;;;;;31.84;39.50;100470.88;4999218;28;20045;-85
2022/09/12 11:04:09;;;;;;;16.73;6.68;;;;;;;32.51;38.91;100476.63;5009371;28;20030;-86
2022/09/12 11:06:43;;;;;;;17.70;6.60;;;;;;;32.30;38.52;100478.19;4995736;28;20053;-87
2022/09/12 11:09:25;;;;;;;11.20;5.85;;;;;;;33.30;36.48;100471.47;5023863;28;20041;-87
2022/09/12 11:12:19;;;;;;;12.20;5.50;;;;;;;33.73;35.75;100464.28;5018907;28;20036;-88
2022/09/12 11:15:15;;;;;;;13.35;4.18;;;;;;;33.65;36.77;100465.06;5014081;28;20042;-87
2022/09/12 11:17:50;;;;;;;10.57;3.97;;;;;;;33.01;37.23;100460.94;5013892;28;20050;-85
2022/09/12 11:20:22;;;;;;;10.68;4.85;;;;;;;32.43;37.85;100461.69;5015196;28;20076;-87
2022/09/12 11:23:10;;;;;;;11.95;4.85;;;;;;;33.34;35.89;100450.50;5014734;28;20200;-86
2022/09/12 11:25:47;;;;;;;10.32;4.82;;;;;;;33.64;35.32;100449.72;5012825;28;20162;-89
2022/09/12 11:28:31;;;;;;;10.50;4.55;;;;;;;33.60;34.83;100459.69;5013675;28;20036;-85
2022/09/12 11:31:06;;;;;;;10.75;4.00;;;;;;;33.68;35.79;100456.16;4997801;28;20156;-86
2022/09/12 11:33:42;;;;;;;12.40;4.03;;;;;;;32.53;36.92;100453.25;5013609;28;20034;-84
2022/09/12 11:36:25;;;;;;;10.77;4.20;;;;;;;32.73;36.21;100452.78;5016289;28;20275;-87
2022/09/12 11:39:22;;;;;;;9.70;2.80;;;;;;;33.74;34.80;100441.97;5016305;28;20120;-86
2022/09/12 11:41:56;;;;;;;10.07;3.63;;;;;;;32.76;36.27;100446.69;5014687;28;20129;-88
2022/09/12 11:44:27;;;;;;;9.20;4.00;;;;;;;31.68;38.71;100447.63;5016828;28;20042;-86
2022/09/12 11:46:53;;;;;;;7.47;3.63;;;;;;;31.74;38.20;100446.41;5014545;28;20026;-87
2022/09/12 11:49:24;;;;;;;7.55;4.03;;;;;;;32.00;37.88;100436.53;5017231;28;20026;-88
2022/09/12 11:52:03;;;;;;;6.95;3.55;;;;;;;31.73;38.40;100433.81;5015169;28;20465;-87